sensor_id;sensor_type;location;lat;lon;timestamp;pressure;altitude;pressure_sealevel;temperature;humidity
37200;BME280;23096;50.892;16.746;2023-07-31T00:01:53;98976.91;;;16.99;69.99
37200;BME280;23096;50.892;16.746;2023-07-31T00:04:19;98977.40;;;16.99;69.93
37200;BME280;23096;50.892;16.746;2023-07-31T00:06:44;98977.91;;;16.99;69.65
37200;BME280;23096;50.892;16.746;2023-07-31T00:09:09;98975.98;;;16.99;69.78
37200;BME280;23096;50.892;16.746;2023-07-31T00:11:35;98979.73;;;17.01;69.80
37200;BME280;23096;50.892;16.746;2023-07-31T00:14:01;98978.65;;;17.01;69.71
37200;BME280;23096;50.892;16.746;2023-07-31T00:16:26;98976.39;;;17.01;69.70
37200;BME280;23096;50.892;16.746;2023-07-31T00:18:52;98979.30;;;17.02;69.63
37200;BME280;23096;50.892;16.746;2023-07-31T00:21:17;98979.23;;;17.03;69.63
37200;BME280;23096;50.892;16.746;2023-07-31T00:23:43;98978.23;;;17.05;69.60
37200;BME280;23096;50.892;16.746;2023-07-31T00:26:08;98974.81;;;17.04;69.36
37200;BME280;23096;50.892;16.746;2023-07-31T00:28:34;98970.74;;;17.05;69.31
37200;BME280;23096;50.892;16.746;2023-07-31T00:30:59;98972.09;;;17.07;69.15
37200;BME280;23096;50.892;16.746;2023-07-31T00:33:25;98971.84;;;17.08;69.16
37200;BME280;23096;50.892;16.746;2023-07-31T00:35:50;98969.66;;;17.09;69.18
37200;BME280;23096;50.892;16.746;2023-07-31T00:38:16;98972.08;;;17.09;68.95
37200;BME280;23096;50.892;16.746;2023-07-31T00:40:41;98975.81;;;17.11;68.96
37200;BME280;23096;50.892;16.746;2023-07-31T00:43:07;98973.63;;;17.13;68.97
37200;BME280;23096;50.892;16.746;2023-07-31T00:45:34;98971.05;;;17.15;68.88
37200;BME280;23096;50.892;16.746;2023-07-31T00:47:59;98965.23;;;17.16;68.87
37200;BME280;23096;50.892;16.746;2023-07-31T00:50:25;98966.16;;;17.18;68.63
37200;BME280;23096;50.892;16.746;2023-07-31T00:52:50;98963.91;;;17.18;68.59
37200;BME280;23096;50.892;16.746;2023-07-31T00:55:17;98966.23;;;17.17;68.61
37200;BME280;23096;50.892;16.746;2023-07-31T00:57:44;98964.36;;;17.16;68.31
37200;BME280;23096;50.892;16.746;2023-07-31T01:00:11;98962.14;;;17.16;68.35
37200;BME280;23096;50.892;16.746;2023-07-31T01:02:37;98963.88;;;17.16;68.39
37200;BME280;23096;50.892;16.746;2023-07-31T01:05:03;98965.94;;;17.16;68.07
37200;BME280;23096;50.892;16.746;2023-07-31T01:07:51;98957.88;;;17.14;68.36
37200;BME280;23096;50.892;16.746;2023-07-31T01:10:23;98958.72;;;17.15;68.19
37200;BME280;23096;50.892;16.746;2023-07-31T01:12:53;98963.59;;;17.15;68.27
37200;BME280;23096;50.892;16.746;2023-07-31T01:15:22;98967.90;;;17.15;68.19
37200;BME280;23096;50.892;16.746;2023-07-31T01:17:47;98968.89;;;17.16;68.15
37200;BME280;23096;50.892;16.746;2023-07-31T01:20:26;98971.14;;;17.16;68.00
37200;BME280;23096;50.892;16.746;2023-07-31T01:25:59;98974.95;;;17.16;68.02
37200;BME280;23096;50.892;16.746;2023-07-31T01:31:30;98973.73;;;17.17;67.68
37200;BME280;23096;50.892;16.746;2023-07-31T01:34:00;98974.27;;;17.16;67.79
37200;BME280;23096;50.892;16.746;2023-07-31T01:36:27;98977.25;;;17.15;67.55
37200;BME280;23096;50.892;16.746;2023-07-31T01:39:03;98982.28;;;17.16;67.70
37200;BME280;23096;50.892;16.746;2023-07-31T01:41:29;98981.23;;;17.16;67.68
37200;BME280;23096;50.892;16.746;2023-07-31T01:43:55;98972.87;;;17.16;67.54
37200;BME280;23096;50.892;16.746;2023-07-31T01:46:21;98973.55;;;17.16;67.50
37200;BME280;23096;50.892;16.746;2023-07-31T01:48:46;98974.50;;;17.18;67.55
37200;BME280;23096;50.892;16.746;2023-07-31T01:51:12;98975.54;;;17.18;67.47
37200;BME280;23096;50.892;16.746;2023-07-31T01:53:39;98974.70;;;17.17;67.49
37200;BME280;23096;50.892;16.746;2023-07-31T01:56:04;98976.45;;;17.17;67.45
37200;BME280;23096;50.892;16.746;2023-07-31T01:58:31;98974.55;;;17.17;67.27
37200;BME280;23096;50.892;16.746;2023-07-31T02:00:57;98974.10;;;17.16;67.28
37200;BME280;23096;50.892;16.746;2023-07-31T02:03:22;98979.70;;;17.15;67.21
37200;BME280;23096;50.892;16.746;2023-07-31T02:05:50;98979.80;;;17.16;67.29
37200;BME280;23096;50.892;16.746;2023-07-31T02:08:16;98977.70;;;17.17;67.02
37200;BME280;23096;50.892;16.746;2023-07-31T02:10:42;98979.59;;;17.17;67.17
37200;BME280;23096;50.892;16.746;2023-07-31T02:13:08;98974.54;;;17.17;67.00
37200;BME280;23096;50.892;16.746;2023-07-31T02:15:35;98982.58;;;17.16;66.85
37200;BME280;23096;50.892;16.746;2023-07-31T02:18:01;98979.31;;;17.16;66.80
37200;BME280;23096;50.892;16.746;2023-07-31T02:20:26;98981.09;;;17.15;66.90
37200;BME280;23096;50.892;16.746;2023-07-31T02:22:52;98982.91;;;17.14;66.85
37200;BME280;23096;50.892;16.746;2023-07-31T02:25:18;98982.65;;;17.13;66.63
37200;BME280;23096;50.892;16.746;2023-07-31T02:27:44;98979.06;;;17.12;66.85
37200;BME280;23096;50.892;16.746;2023-07-31T02:30:10;98980.46;;;17.11;66.67
37200;BME280;23096;50.892;16.746;2023-07-31T02:32:36;98985.22;;;17.10;66.56
37200;BME280;23096;50.892;16.746;2023-07-31T02:35:02;98981.48;;;17.09;66.52
37200;BME280;23096;50.892;16.746;2023-07-31T02:37:28;98981.55;;;17.08;66.43
37200;BME280;23096;50.892;16.746;2023-07-31T02:39:54;98979.69;;;17.07;66.57
37200;BME280;23096;50.892;16.746;2023-07-31T02:42:20;98981.21;;;17.05;66.31
37200;BME280;23096;50.892;16.746;2023-07-31T02:44:46;98980.80;;;17.03;66.30
37200;BME280;23096;50.892;16.746;2023-07-31T02:47:11;98983.90;;;17.03;66.30
37200;BME280;23096;50.892;16.746;2023-07-31T02:49:37;98985.45;;;17.03;66.10
37200;BME280;23096;50.892;16.746;2023-07-31T02:52:03;98985.21;;;17.04;66.19
37200;BME280;23096;50.892;16.746;2023-07-31T02:54:28;98982.92;;;17.05;66.07
37200;BME280;23096;50.892;16.746;2023-07-31T02:56:54;98981.61;;;17.04;65.92
37200;BME280;23096;50.892;16.746;2023-07-31T02:59:20;98977.38;;;17.02;66.09
37200;BME280;23096;50.892;16.746;2023-07-31T03:01:46;98979.66;;;17.02;65.98
37200;BME280;23096;50.892;16.746;2023-07-31T03:04:11;98974.31;;;17.01;65.84
37200;BME280;23096;50.892;16.746;2023-07-31T03:06:37;98975.04;;;17.01;65.79
37200;BME280;23096;50.892;16.746;2023-07-31T03:09:03;98975.27;;;17.00;65.73
37200;BME280;23096;50.892;16.746;2023-07-31T03:11:28;98973.23;;;16.97;65.78
37200;BME280;23096;50.892;16.746;2023-07-31T03:13:55;98972.41;;;16.96;65.77
37200;BME280;23096;50.892;16.746;2023-07-31T03:16:21;98969.96;;;16.96;65.66
37200;BME280;23096;50.892;16.746;2023-07-31T03:18:46;98969.16;;;16.95;65.61
37200;BME280;23096;50.892;16.746;2023-07-31T03:21:12;98970.18;;;16.95;65.48
37200;BME280;23096;50.892;16.746;2023-07-31T03:23:38;98967.85;;;16.94;65.49
37200;BME280;23096;50.892;16.746;2023-07-31T03:26:06;98972.62;;;16.93;65.45
37200;BME280;23096;50.892;16.746;2023-07-31T03:28:32;98972.57;;;16.91;65.53
37200;BME280;23096;50.892;16.746;2023-07-31T03:30:57;98973.34;;;16.90;65.30
37200;BME280;23096;50.892;16.746;2023-07-31T03:33:23;98970.08;;;16.89;65.31
37200;BME280;23096;50.892;16.746;2023-07-31T03:35:50;98973.73;;;16.88;65.43
37200;BME280;23096;50.892;16.746;2023-07-31T03:38:16;98977.21;;;16.88;65.32
37200;BME280;23096;50.892;16.746;2023-07-31T03:40:41;98976.86;;;16.88;65.26
37200;BME280;23096;50.892;16.746;2023-07-31T03:43:07;98976.20;;;16.88;65.16
37200;BME280;23096;50.892;16.746;2023-07-31T03:45:32;98979.55;;;16.87;65.11
37200;BME280;23096;50.892;16.746;2023-07-31T03:47:58;98979.76;;;16.86;65.32
37200;BME280;23096;50.892;16.746;2023-07-31T03:50:24;98977.48;;;16.87;65.13
37200;BME280;23096;50.892;16.746;2023-07-31T03:52:50;98975.23;;;16.86;65.15
37200;BME280;23096;50.892;16.746;2023-07-31T03:55:16;98976.09;;;16.87;65.14
37200;BME280;23096;50.892;16.746;2023-07-31T03:57:41;98976.48;;;16.86;65.09
37200;BME280;23096;50.892;16.746;2023-07-31T04:00:07;98974.69;;;16.87;65.02
37200;BME280;23096;50.892;16.746;2023-07-31T04:02:37;98970.77;;;16.89;64.91
37200;BME280;23096;50.892;16.746;2023-07-31T04:05:03;98972.13;;;16.89;64.91
37200;BME280;23096;50.892;16.746;2023-07-31T04:07:28;98973.63;;;16.90;64.95
37200;BME280;23096;50.892;16.746;2023-07-31T04:09:54;98977.27;;;16.90;64.84
37200;BME280;23096;50.892;16.746;2023-07-31T04:12:19;98973.75;;;16.91;65.05
37200;BME280;23096;50.892;16.746;2023-07-31T04:14:45;98975.88;;;16.93;64.84
37200;BME280;23096;50.892;16.746;2023-07-31T04:17:10;98970.59;;;16.94;64.70
37200;BME280;23096;50.892;16.746;2023-07-31T04:19:36;98974.42;;;16.94;64.71
37200;BME280;23096;50.892;16.746;2023-07-31T04:22:01;98971.08;;;16.95;64.63
37200;BME280;23096;50.892;16.746;2023-07-31T04:24:27;98970.52;;;16.96;64.69
37200;BME280;23096;50.892;16.746;2023-07-31T04:26:53;98967.98;;;16.97;64.62
37200;BME280;23096;50.892;16.746;2023-07-31T04:29:19;98965.23;;;16.99;64.61
37200;BME280;23096;50.892;16.746;2023-07-31T04:31:45;98961.94;;;17.02;64.69
37200;BME280;23096;50.892;16.746;2023-07-31T04:34:10;98964.15;;;17.06;64.52
37200;BME280;23096;50.892;16.746;2023-07-31T04:36:37;98965.24;;;17.08;64.46
37200;BME280;23096;50.892;16.746;2023-07-31T04:39:03;98963.45;;;17.12;64.57
37200;BME280;23096;50.892;16.746;2023-07-31T04:41:28;98961.67;;;17.15;64.42
37200;BME280;23096;50.892;16.746;2023-07-31T04:43:54;98961.34;;;17.18;64.36
37200;BME280;23096;50.892;16.746;2023-07-31T04:46:19;98955.88;;;17.21;64.41
37200;BME280;23096;50.892;16.746;2023-07-31T04:48:45;98955.60;;;17.26;64.33
37200;BME280;23096;50.892;16.746;2023-07-31T04:51:11;98955.82;;;17.30;64.32
37200;BME280;23096;50.892;16.746;2023-07-31T04:53:36;98958.64;;;17.35;64.18
37200;BME280;23096;50.892;16.746;2023-07-31T04:56:02;98957.96;;;17.40;64.33
37200;BME280;23096;50.892;16.746;2023-07-31T04:58:28;98954.14;;;17.46;64.07
37200;BME280;23096;50.892;16.746;2023-07-31T05:00:54;98951.95;;;17.50;64.04
37200;BME280;23096;50.892;16.746;2023-07-31T05:03:19;98954.25;;;17.55;63.99
37200;BME280;23096;50.892;16.746;2023-07-31T05:05:45;98955.39;;;17.59;63.98
37200;BME280;23096;50.892;16.746;2023-07-31T05:08:10;98959.10;;;17.63;63.87
37200;BME280;23096;50.892;16.746;2023-07-31T05:10:36;98959.72;;;17.67;63.81
37200;BME280;23096;50.892;16.746;2023-07-31T05:13:01;98962.83;;;17.70;63.69
37200;BME280;23096;50.892;16.746;2023-07-31T05:15:27;98964.46;;;17.74;63.60
37200;BME280;23096;50.892;16.746;2023-07-31T05:17:52;98965.83;;;17.77;63.59
37200;BME280;23096;50.892;16.746;2023-07-31T05:20:18;98966.15;;;17.80;63.41
37200;BME280;23096;50.892;16.746;2023-07-31T05:22:43;98971.52;;;17.83;63.32
37200;BME280;23096;50.892;16.746;2023-07-31T05:25:09;98976.40;;;17.86;63.21
37200;BME280;23096;50.892;16.746;2023-07-31T05:27:34;98974.29;;;17.89;63.25
37200;BME280;23096;50.892;16.746;2023-07-31T05:30:00;98974.73;;;17.90;63.17
37200;BME280;23096;50.892;16.746;2023-07-31T05:32:26;98976.16;;;17.92;63.03
37200;BME280;23096;50.892;16.746;2023-07-31T05:34:52;98973.25;;;17.94;63.03
37200;BME280;23096;50.892;16.746;2023-07-31T05:37:18;98971.15;;;17.97;62.88
37200;BME280;23096;50.892;16.746;2023-07-31T05:39:44;98965.02;;;17.98;62.70
37200;BME280;23096;50.892;16.746;2023-07-31T05:42:10;98966.23;;;18.00;62.67
37200;BME280;23096;50.892;16.746;2023-07-31T05:44:35;98968.21;;;18.02;62.62
37200;BME280;23096;50.892;16.746;2023-07-31T05:47:01;98964.91;;;18.05;62.41
37200;BME280;23096;50.892;16.746;2023-07-31T05:49:26;98964.05;;;18.07;62.65
37200;BME280;23096;50.892;16.746;2023-07-31T05:51:52;98962.98;;;18.10;62.52
37200;BME280;23096;50.892;16.746;2023-07-31T05:54:17;98962.54;;;18.12;62.31
37200;BME280;23096;50.892;16.746;2023-07-31T05:56:43;98961.86;;;18.14;62.26
37200;BME280;23096;50.892;16.746;2023-07-31T05:59:10;98959.72;;;18.14;62.20
37200;BME280;23096;50.892;16.746;2023-07-31T06:01:35;98963.54;;;18.15;62.29
37200;BME280;23096;50.892;16.746;2023-07-31T06:04:01;98961.90;;;18.15;62.35
37200;BME280;23096;50.892;16.746;2023-07-31T06:06:28;98959.22;;;18.17;62.43
37200;BME280;23096;50.892;16.746;2023-07-31T06:08:54;98958.45;;;18.18;62.42
37200;BME280;23096;50.892;16.746;2023-07-31T06:11:22;98958.09;;;18.18;62.48
37200;BME280;23096;50.892;16.746;2023-07-31T06:13:48;98960.90;;;18.20;62.41
37200;BME280;23096;50.892;16.746;2023-07-31T06:16:16;98959.70;;;18.23;62.42
37200;BME280;23096;50.892;16.746;2023-07-31T06:18:42;98961.64;;;18.25;62.33
37200;BME280;23096;50.892;16.746;2023-07-31T06:21:08;98964.71;;;18.26;62.38
37200;BME280;23096;50.892;16.746;2023-07-31T06:23:34;98964.65;;;18.27;62.48
37200;BME280;23096;50.892;16.746;2023-07-31T06:25:59;98964.80;;;18.27;62.40
37200;BME280;23096;50.892;16.746;2023-07-31T06:28:29;98964.29;;;18.27;62.27
37200;BME280;23096;50.892;16.746;2023-07-31T06:30:55;98966.02;;;18.27;62.36
37200;BME280;23096;50.892;16.746;2023-07-31T06:33:20;98966.34;;;18.27;62.43
37200;BME280;23096;50.892;16.746;2023-07-31T06:35:46;98966.69;;;18.27;62.50
37200;BME280;23096;50.892;16.746;2023-07-31T06:38:11;98969.23;;;18.28;62.37
37200;BME280;23096;50.892;16.746;2023-07-31T06:40:37;98965.15;;;18.30;62.43
37200;BME280;23096;50.892;16.746;2023-07-31T06:43:02;98965.08;;;18.31;62.29
37200;BME280;23096;50.892;16.746;2023-07-31T06:45:34;98967.19;;;18.33;62.40
37200;BME280;23096;50.892;16.746;2023-07-31T06:48:01;98967.38;;;18.35;62.45
37200;BME280;23096;50.892;16.746;2023-07-31T06:50:28;98970.16;;;18.35;62.35
37200;BME280;23096;50.892;16.746;2023-07-31T06:52:54;98972.87;;;18.36;62.46
37200;BME280;23096;50.892;16.746;2023-07-31T06:55:20;98967.91;;;18.37;62.44
37200;BME280;23096;50.892;16.746;2023-07-31T06:57:48;98966.79;;;18.38;62.54
37200;BME280;23096;50.892;16.746;2023-07-31T07:00:14;98969.29;;;18.40;62.51
37200;BME280;23096;50.892;16.746;2023-07-31T07:02:40;98967.38;;;18.42;62.43
37200;BME280;23096;50.892;16.746;2023-07-31T07:05:06;98973.11;;;18.45;62.55
37200;BME280;23096;50.892;16.746;2023-07-31T07:07:32;98969.58;;;18.49;62.80
37200;BME280;23096;50.892;16.746;2023-07-31T07:09:58;98964.17;;;18.51;62.76
37200;BME280;23096;50.892;16.746;2023-07-31T07:12:29;98960.93;;;18.55;62.88
37200;BME280;23096;50.892;16.746;2023-07-31T07:14:55;98959.34;;;18.61;62.69
37200;BME280;23096;50.892;16.746;2023-07-31T07:17:22;98957.77;;;18.69;62.73
37200;BME280;23096;50.892;16.746;2023-07-31T07:19:48;98950.48;;;18.76;62.69
37200;BME280;23096;50.892;16.746;2023-07-31T07:22:14;98946.04;;;18.82;62.56
37200;BME280;23096;50.892;16.746;2023-07-31T07:24:40;98941.98;;;18.88;62.54
37200;BME280;23096;50.892;16.746;2023-07-31T07:27:06;98944.06;;;18.93;62.30
37200;BME280;23096;50.892;16.746;2023-07-31T07:29:33;98939.14;;;18.97;62.15
37200;BME280;23096;50.892;16.746;2023-07-31T07:32:02;98938.77;;;18.99;62.05
37200;BME280;23096;50.892;16.746;2023-07-31T07:34:27;98939.85;;;19.04;62.02
37200;BME280;23096;50.892;16.746;2023-07-31T07:36:53;98932.45;;;19.09;62.11
37200;BME280;23096;50.892;16.746;2023-07-31T07:39:19;98933.77;;;19.18;62.17
37200;BME280;23096;50.892;16.746;2023-07-31T07:41:46;98939.70;;;19.25;62.07
37200;BME280;23096;50.892;16.746;2023-07-31T07:44:12;98936.42;;;19.31;61.99
37200;BME280;23096;50.892;16.746;2023-07-31T07:46:38;98941.42;;;19.37;61.96
37200;BME280;23096;50.892;16.746;2023-07-31T07:49:04;98943.80;;;19.41;61.59
37200;BME280;23096;50.892;16.746;2023-07-31T07:51:29;98943.87;;;19.44;61.73
37200;BME280;23096;50.892;16.746;2023-07-31T07:54:00;98945.91;;;19.50;61.73
37200;BME280;23096;50.892;16.746;2023-07-31T07:56:26;98948.87;;;19.52;61.45
37200;BME280;23096;50.892;16.746;2023-07-31T07:58:52;98946.09;;;19.52;61.20
37200;BME280;23096;50.892;16.746;2023-07-31T08:01:18;98939.38;;;19.56;61.27
37200;BME280;23096;50.892;16.746;2023-07-31T08:03:44;98935.37;;;19.58;61.02
37200;BME280;23096;50.892;16.746;2023-07-31T08:06:09;98930.34;;;19.60;61.06
37200;BME280;23096;50.892;16.746;2023-07-31T08:08:36;98929.73;;;19.64;61.00
37200;BME280;23096;50.892;16.746;2023-07-31T08:11:02;98932.52;;;19.68;60.78
37200;BME280;23096;50.892;16.746;2023-07-31T08:13:27;98929.48;;;19.74;60.54
37200;BME280;23096;50.892;16.746;2023-07-31T08:15:53;98930.98;;;19.80;60.50
37200;BME280;23096;50.892;16.746;2023-07-31T08:18:19;98936.41;;;19.84;60.49
37200;BME280;23096;50.892;16.746;2023-07-31T08:20:44;98941.73;;;19.85;60.27
37200;BME280;23096;50.892;16.746;2023-07-31T08:23:10;98938.66;;;19.87;60.04
37200;BME280;23096;50.892;16.746;2023-07-31T08:25:36;98942.28;;;19.85;59.84
37200;BME280;23096;50.892;16.746;2023-07-31T08:28:02;98948.49;;;19.79;59.63
37200;BME280;23096;50.892;16.746;2023-07-31T08:30:28;98947.89;;;19.72;59.45
37200;BME280;23096;50.892;16.746;2023-07-31T08:32:53;98952.77;;;19.65;59.36
37200;BME280;23096;50.892;16.746;2023-07-31T08:35:19;98952.98;;;19.53;59.27
37200;BME280;23096;50.892;16.746;2023-07-31T08:37:44;98954.54;;;19.46;59.35
37200;BME280;23096;50.892;16.746;2023-07-31T08:40:10;98959.84;;;19.40;59.40
37200;BME280;23096;50.892;16.746;2023-07-31T08:42:47;98957.27;;;19.35;59.46
37200;BME280;23096;50.892;16.746;2023-07-31T08:45:16;98951.05;;;19.27;59.55
37200;BME280;23096;50.892;16.746;2023-07-31T08:47:47;98940.79;;;19.20;59.55
37200;BME280;23096;50.892;16.746;2023-07-31T08:50:14;98938.48;;;19.12;59.58
37200;BME280;23096;50.892;16.746;2023-07-31T08:52:40;98942.29;;;19.11;59.70
37200;BME280;23096;50.892;16.746;2023-07-31T08:55:07;98951.09;;;19.09;59.77
37200;BME280;23096;50.892;16.746;2023-07-31T08:57:35;98950.05;;;19.07;59.78
37200;BME280;23096;50.892;16.746;2023-07-31T09:00:02;98948.82;;;19.07;60.02
37200;BME280;23096;50.892;16.746;2023-07-31T09:02:37;98949.13;;;19.07;60.06
37200;BME280;23096;50.892;16.746;2023-07-31T09:05:07;98951.06;;;19.10;60.23
37200;BME280;23096;50.892;16.746;2023-07-31T09:07:35;98953.21;;;19.14;60.33
37200;BME280;23096;50.892;16.746;2023-07-31T09:10:02;98956.14;;;19.16;60.29
37200;BME280;23096;50.892;16.746;2023-07-31T09:12:28;98946.41;;;19.16;60.34
37200;BME280;23096;50.892;16.746;2023-07-31T09:14:55;98952.52;;;19.16;60.32
37200;BME280;23096;50.892;16.746;2023-07-31T09:17:34;98960.52;;;19.16;60.34
37200;BME280;23096;50.892;16.746;2023-07-31T09:20:19;98964.80;;;19.19;60.50
37200;BME280;23096;50.892;16.746;2023-07-31T09:22:45;98963.10;;;19.22;60.50
37200;BME280;23096;50.892;16.746;2023-07-31T09:25:18;98966.05;;;19.22;60.47
37200;BME280;23096;50.892;16.746;2023-07-31T09:30:18;98979.09;;;19.22;60.46
37200;BME280;23096;50.892;16.746;2023-07-31T09:32:48;98976.66;;;19.20;60.46
37200;BME280;23096;50.892;16.746;2023-07-31T09:35:42;98987.01;;;19.19;60.48
37200;BME280;23096;50.892;16.746;2023-07-31T09:38:13;98985.92;;;19.17;60.57
37200;BME280;23096;50.892;16.746;2023-07-31T09:40:43;98980.77;;;19.11;60.49
37200;BME280;23096;50.892;16.746;2023-07-31T09:43:12;98976.40;;;19.06;60.60
37200;BME280;23096;50.892;16.746;2023-07-31T09:45:40;98975.23;;;19.05;60.59
37200;BME280;23096;50.892;16.746;2023-07-31T09:48:07;98975.23;;;19.05;60.68
37200;BME280;23096;50.892;16.746;2023-07-31T09:50:37;98976.05;;;19.06;60.63
37200;BME280;23096;50.892;16.746;2023-07-31T09:53:04;98973.30;;;19.05;60.67
37200;BME280;23096;50.892;16.746;2023-07-31T09:55:29;98976.58;;;19.08;60.87
37200;BME280;23096;50.892;16.746;2023-07-31T09:57:57;98974.85;;;19.11;60.84
37200;BME280;23096;50.892;16.746;2023-07-31T10:00:24;98975.40;;;19.10;60.84
37200;BME280;23096;50.892;16.746;2023-07-31T10:02:54;98974.50;;;19.08;60.74
37200;BME280;23096;50.892;16.746;2023-07-31T10:05:23;98968.66;;;19.09;60.90
37200;BME280;23096;50.892;16.746;2023-07-31T10:07:54;98968.70;;;19.11;60.89
37200;BME280;23096;50.892;16.746;2023-07-31T10:10:22;98969.17;;;19.14;60.80
37200;BME280;23096;50.892;16.746;2023-07-31T10:12:52;98969.68;;;19.17;60.92
37200;BME280;23096;50.892;16.746;2023-07-31T10:15:19;98963.35;;;19.18;60.86
37200;BME280;23096;50.892;16.746;2023-07-31T10:17:47;98957.77;;;19.21;60.88
37200;BME280;23096;50.892;16.746;2023-07-31T10:20:14;98957.51;;;19.24;60.92
37200;BME280;23096;50.892;16.746;2023-07-31T10:22:42;98955.98;;;19.26;60.94
37200;BME280;23096;50.892;16.746;2023-07-31T10:25:09;98954.11;;;19.30;60.89
37200;BME280;23096;50.892;16.746;2023-07-31T10:27:39;98953.34;;;19.36;61.05
37200;BME280;23096;50.892;16.746;2023-07-31T10:30:07;98954.14;;;19.42;61.09
37200;BME280;23096;50.892;16.746;2023-07-31T10:32:34;98952.02;;;19.45;60.97
37200;BME280;23096;50.892;16.746;2023-07-31T10:35:01;98951.23;;;19.46;60.86
37200;BME280;23096;50.892;16.746;2023-07-31T10:37:30;98950.71;;;19.46;60.88
37200;BME280;23096;50.892;16.746;2023-07-31T10:42:56;98952.02;;;19.45;60.83
37200;BME280;23096;50.892;16.746;2023-07-31T10:45:39;98949.31;;;19.46;60.80
37200;BME280;23096;50.892;16.746;2023-07-31T10:48:17;98945.63;;;19.46;60.70
37200;BME280;23096;50.892;16.746;2023-07-31T10:50:51;98940.19;;;19.47;60.64
37200;BME280;23096;50.892;16.746;2023-07-31T10:53:30;98933.88;;;19.52;60.64
37200;BME280;23096;50.892;16.746;2023-07-31T10:56:00;98925.52;;;19.59;60.83
37200;BME280;23096;50.892;16.746;2023-07-31T10:58:26;98920.40;;;19.67;60.71
37200;BME280;23096;50.892;16.746;2023-07-31T11:00:56;98920.55;;;19.77;60.80
37200;BME280;23096;50.892;16.746;2023-07-31T11:03:26;98908.20;;;19.86;60.72
37200;BME280;23096;50.892;16.746;2023-07-31T11:06:03;98911.58;;;20.02;60.84
37200;BME280;23096;50.892;16.746;2023-07-31T11:08:31;98911.48;;;20.21;60.82
37200;BME280;23096;50.892;16.746;2023-07-31T11:11:10;98907.58;;;20.38;60.68
37200;BME280;23096;50.892;16.746;2023-07-31T11:13:40;98903.21;;;20.56;60.67
37200;BME280;23096;50.892;16.746;2023-07-31T11:16:06;98900.32;;;20.71;60.44
37200;BME280;23096;50.892;16.746;2023-07-31T11:18:34;98903.41;;;20.80;60.35
37200;BME280;23096;50.892;16.746;2023-07-31T11:21:00;98901.79;;;20.90;60.30
37200;BME280;23096;50.892;16.746;2023-07-31T11:23:25;98898.85;;;21.00;60.22
37200;BME280;23096;50.892;16.746;2023-07-31T11:25:51;98896.66;;;21.08;60.07
37200;BME280;23096;50.892;16.746;2023-07-31T11:28:18;98896.84;;;21.14;59.87
37200;BME280;23096;50.892;16.746;2023-07-31T11:30:45;98889.65;;;21.17;59.55
37200;BME280;23096;50.892;16.746;2023-07-31T11:33:12;98885.70;;;21.23;59.50
37200;BME280;23096;50.892;16.746;2023-07-31T11:35:46;98881.23;;;21.30;59.54
37200;BME280;23096;50.892;16.746;2023-07-31T11:38:24;98875.89;;;21.38;59.46
37200;BME280;23096;50.892;16.746;2023-07-31T11:40:52;98871.82;;;21.43;59.23
37200;BME280;23096;50.892;16.746;2023-07-31T11:43:18;98860.89;;;21.47;59.02
37200;BME280;23096;50.892;16.746;2023-07-31T11:46:05;98862.15;;;21.50;59.09
37200;BME280;23096;50.892;16.746;2023-07-31T11:48:34;98852.73;;;21.52;58.82
37200;BME280;23096;50.892;16.746;2023-07-31T11:51:06;98854.14;;;21.54;58.70
37200;BME280;23096;50.892;16.746;2023-07-31T11:56:20;98853.60;;;21.71;58.59
37200;BME280;23096;50.892;16.746;2023-07-31T11:58:48;98853.79;;;21.84;58.62
37200;BME280;23096;50.892;16.746;2023-07-31T12:01:15;98847.14;;;21.96;58.61
37200;BME280;23096;50.892;16.746;2023-07-31T12:03:44;98854.55;;;22.07;58.41
37200;BME280;23096;50.892;16.746;2023-07-31T12:06:10;98846.39;;;22.15;58.27
37200;BME280;23096;50.892;16.746;2023-07-31T12:08:36;98843.02;;;22.26;58.22
37200;BME280;23096;50.892;16.746;2023-07-31T12:11:08;98838.83;;;22.32;58.05
37200;BME280;23096;50.892;16.746;2023-07-31T12:13:36;98839.02;;;22.34;57.97
37200;BME280;23096;50.892;16.746;2023-07-31T12:16:03;98832.63;;;22.37;57.91
37200;BME280;23096;50.892;16.746;2023-07-31T12:18:33;98832.61;;;22.41;57.82
37200;BME280;23096;50.892;16.746;2023-07-31T12:21:01;98828.12;;;22.49;57.69
37200;BME280;23096;50.892;16.746;2023-07-31T12:23:32;98814.26;;;22.53;57.47
37200;BME280;23096;50.892;16.746;2023-07-31T12:28:29;98808.59;;;22.48;57.02
37200;BME280;23096;50.892;16.746;2023-07-31T12:30:59;98806.68;;;22.48;56.88
37200;BME280;23096;50.892;16.746;2023-07-31T12:33:34;98804.05;;;22.52;56.97
37200;BME280;23096;50.892;16.746;2023-07-31T12:36:08;98804.92;;;22.55;56.66
37200;BME280;23096;50.892;16.746;2023-07-31T12:38:34;98791.91;;;22.62;56.68
37200;BME280;23096;50.892;16.746;2023-07-31T12:41:00;98793.86;;;22.74;56.70
37200;BME280;23096;50.892;16.746;2023-07-31T12:43:26;98787.98;;;22.85;56.76
37200;BME280;23096;50.892;16.746;2023-07-31T12:45:51;98788.48;;;22.95;56.57
37200;BME280;23096;50.892;16.746;2023-07-31T12:48:17;98782.35;;;22.98;56.35
37200;BME280;23096;50.892;16.746;2023-07-31T12:50:43;98781.09;;;22.99;56.29
37200;BME280;23096;50.892;16.746;2023-07-31T12:53:08;98777.33;;;23.00;56.11
37200;BME280;23096;50.892;16.746;2023-07-31T12:55:34;98767.38;;;23.00;56.08
37200;BME280;23096;50.892;16.746;2023-07-31T12:58:03;98764.50;;;23.01;55.97
37200;BME280;23096;50.892;16.746;2023-07-31T13:00:29;98756.63;;;23.04;55.86
37200;BME280;23096;50.892;16.746;2023-07-31T13:02:54;98756.52;;;23.09;55.79
37200;BME280;23096;50.892;16.746;2023-07-31T13:05:20;98755.86;;;23.15;55.88
37200;BME280;23096;50.892;16.746;2023-07-31T13:07:47;98751.09;;;23.19;55.74